Ponte Vedra Beach, Florida
Current Conditions -  °F | °C
As of 5:53 PM on Tuesday 27 Jan 2015 (Local Time) from KCRG Reporting Station
Clear Clear  
Wind Chill: 57°   Ceiling: Unl
Heat Index: 57°   Visibility: 10mi
Dew Point: 36°   Wind: 15mph
Humidity: 45%   Direction: 320°NW
Pressure: 29.94"   Gusts: NA
Location:  30.24°N, 81.39°W
Report Text: KCRG 272253Z 32013KT 10SM CLR 14/02 A2994 RMK AO2 SLP137 T01390022
Loading
Personal Weather Stations






























Interactive Weather Map New forecast layout! Learn more

10-Day Weather Forecast

Advertisements
Track Severe Weather on mobile